Portada
METAR-TAF:

METAR-TAF

Aeropuertos :

Las Vegas, Nevada, Estados Unidos

Aeropuerto Internacional McCarran

latitud: 36-04-44N, longitud: 115-09-19W, altitud: 663 m

Observación

El informe se hizo hace 30 minutos, a las 08:56 UTC
Viento 10 kt del norte-noreste
Temperatura 23°C
Humedad 27%
Presión 1027 hPa
Visibilidad: 16.1 km
Cielo despejado

METAR: KLAS 240856Z 03010KT 10SM CLR 23/03 A3033 RMK AO2 SLP248 T02280033 51006

Hora: 02:26 (09:26 UTC)

Pronóstico

El informe se hizo hace 41 minutos, a las 08:45 UTC
Pronóstico válido del 24 a las 09 UTC al 25 a las 12 UTC
Viento 11 kt del norte-noreste
Visibilidad: 10 km
Cielo despejado
A partir de las 25 a las 0400 UTC
Viento 7 kt del sur-suroeste
Visibilidad: 10 km
Cielo despejado

TAF: KLAS 240845Z 2409/2512 03011KT P6SM SKC FM250400 21007KT P6SM SKC

Observaciones y pronósticos meteorológicos de más de 4000 aeropuertos (mensajes METAR y TAF).

Los puntos amarillos y rojos representan las estaciones disponibles.

Ponga el ratón en el punto deseado para ver el nombre de la estación.

Haga clic para ver las observaciones y los pronósticos meteorológicos.

Para cambiar el mapa : haga clic en los botones verdes con una cruz de color negro para hacer un zoom, en el botón verde con un guión para alejar o en las flechas verdes para mapas adyacentes.


METAR-TAF: